createdAt,value
2017-10-11T00:03:53.200Z,11
2017-10-11T00:13:53.201Z,12
2017-10-11T00:23:53.279Z,13
2017-10-11T00:33:53.231Z,11
2017-10-11T00:43:53.245Z,11
2017-10-11T00:53:53.245Z,11
2017-10-11T01:03:53.217Z,9
2017-10-11T01:13:53.257Z,9
2017-10-11T01:23:53.202Z,9
2017-10-11T01:33:53.321Z,9
2017-10-11T01:43:53.269Z,9
2017-10-11T01:53:53.367Z,9
2017-10-11T02:03:53.288Z,9
2017-10-11T02:13:53.588Z,10
2017-10-11T02:23:53.302Z,9
2017-10-11T02:33:53.449Z,9
2017-10-11T02:43:53.346Z,9
2017-10-11T02:53:53.381Z,9
2017-10-11T03:03:53.374Z,8
2017-10-11T03:13:53.410Z,10
2017-10-11T03:23:53.358Z,8
2017-10-11T03:33:53.415Z,8
2017-10-11T03:43:53.411Z,8
2017-10-11T03:53:53.436Z,7
2017-10-11T04:03:53.476Z,7
2017-10-11T04:13:53.378Z,6
2017-10-11T04:23:53.486Z,6
2017-10-11T04:33:53.418Z,7
2017-10-11T04:43:53.446Z,7
2017-10-11T04:53:53.477Z,7
2017-10-11T05:03:53.653Z,7
2017-10-11T05:13:53.509Z,6
2017-10-11T05:23:53.551Z,6
2017-10-11T05:33:53.540Z,5
2017-10-11T05:43:53.574Z,7
2017-10-11T05:53:53.511Z,6
2017-10-11T06:03:53.656Z,6
2017-10-11T06:13:53.509Z,6
2017-10-11T06:23:53.554Z,6
2017-10-11T06:33:53.514Z,7
2017-10-11T06:43:53.572Z,7
2017-10-11T06:53:53.604Z,8
2017-10-11T07:03:53.613Z,7
2017-10-11T07:13:53.891Z,7
2017-10-11T07:23:53.560Z,6
2017-10-11T07:33:53.630Z,6
2017-10-11T07:43:53.657Z,5
2017-10-11T07:53:53.649Z,3
2017-10-11T08:03:53.611Z,3
2017-10-11T08:13:53.573Z,3
2017-10-11T08:23:53.696Z,3
2017-10-11T08:33:53.726Z,3
2017-10-11T08:43:53.678Z,3
2017-10-11T08:53:53.661Z,3
2017-10-11T09:03:53.722Z,3
2017-10-11T09:13:53.709Z,3
2017-10-11T09:23:53.842Z,3
2017-10-11T09:33:53.749Z,3
2017-10-11T09:43:53.721Z,3
2017-10-11T09:53:53.874Z,2
2017-10-11T10:13:53.881Z,2
2017-10-11T10:24:32.320Z,1
2017-10-11T10:33:55.505Z,2
2017-10-11T10:43:54.295Z,2
2017-10-11T10:53:55.759Z,1
2017-10-11T11:04:06.196Z,1
2017-10-11T11:13:54.818Z,1
2017-10-11T11:23:53.829Z,1
2017-10-11T11:33:53.883Z,2
2017-10-11T11:43:53.830Z,2
2017-10-11T11:53:53.845Z,4
2017-10-11T12:03:53.838Z,4
2017-10-11T12:13:53.927Z,4
2017-10-11T12:23:53.960Z,4
2017-10-11T12:33:53.942Z,5
2017-10-11T12:43:53.889Z,5
2017-10-11T12:53:53.954Z,4
2017-10-11T13:03:53.996Z,4
2017-10-11T13:13:53.936Z,5
2017-10-11T13:23:53.985Z,5
2017-10-11T13:33:53.979Z,6
2017-10-11T13:43:54.027Z,5
2017-10-11T13:53:53.963Z,5
2017-10-11T14:03:53.953Z,5
2017-10-11T14:13:53.982Z,4
2017-10-11T14:23:54.059Z,5
2017-10-11T14:33:54.001Z,5
2017-10-11T14:43:54.017Z,5
2017-10-11T14:53:53.976Z,5
2017-10-11T15:03:53.960Z,4
2017-10-11T15:13:53.926Z,5
2017-10-11T15:23:53.989Z,5
2017-10-11T15:33:53.926Z,5
2017-10-11T15:43:53.970Z,5
2017-10-11T15:53:54.050Z,5
2017-10-11T16:03:54.137Z,5
2017-10-11T16:13:54.169Z,5
2017-10-11T16:23:54.110Z,5
2017-10-11T16:33:54.155Z,5
2017-10-11T16:43:54.149Z,6
2017-10-11T16:53:54.050Z,5
2017-10-11T17:03:54.049Z,5
2017-10-11T17:13:54.053Z,5
2017-10-11T17:23:54.224Z,5
2017-10-11T17:33:54.089Z,5
2017-10-11T17:43:54.427Z,6
2017-10-11T17:53:54.117Z,5
2017-10-11T18:03:54.103Z,6
2017-10-11T18:13:54.101Z,5
2017-10-11T18:23:54.149Z,6
2017-10-11T18:33:54.108Z,6
2017-10-11T18:43:54.084Z,6
2017-10-11T18:53:54.244Z,5
2017-10-11T19:03:54.222Z,6
2017-10-11T19:13:54.231Z,5
2017-10-11T19:23:54.180Z,5
2017-10-11T19:33:54.288Z,7
2017-10-11T19:43:54.303Z,6
2017-10-11T19:53:54.302Z,6
2017-10-11T20:03:54.975Z,5
2017-10-11T20:13:55.238Z,5
2017-10-11T20:23:54.261Z,5
2017-10-11T20:33:54.400Z,5
2017-10-11T20:43:54.451Z,4
2017-10-11T20:53:54.302Z,4
2017-10-11T21:03:55.388Z,5
2017-10-11T21:13:54.411Z,5
2017-10-11T21:23:54.251Z,5
2017-10-11T21:34:02.917Z,5
2017-10-11T21:43:54.257Z,5
2017-10-11T21:53:54.387Z,5
2017-10-11T22:03:54.149Z,5
2017-10-11T22:13:53.712Z,3
2017-10-11T22:23:54.153Z,3
2017-10-11T22:33:54.049Z,3
2017-10-11T22:43:53.907Z,4
2017-10-11T22:53:53.837Z,3
2017-10-11T23:03:53.769Z,3
2017-10-11T23:13:53.733Z,3
2017-10-11T23:23:53.761Z,3
2017-10-11T23:33:53.796Z,3
2017-10-11T23:43:53.791Z,2
2017-10-11T23:53:53.862Z,3
